sensor_id;sensor_type;location;lat;lon;timestamp;pressure;altitude;pressure_sealevel;temperature;humidity
32320;BME280;19080;51.750;5.888;2023-02-22T00:01:32;101336.59;;;7.78;100.00
32320;BME280;19080;51.750;5.888;2023-02-22T00:04:12;101357.34;;;7.93;100.00
32320;BME280;19080;51.750;5.888;2023-02-22T00:06:41;101332.09;;;7.75;100.00
32320;BME280;19080;51.750;5.888;2023-02-22T00:09:07;101255.75;;;7.32;100.00
32320;BME280;19080;51.750;5.888;2023-02-22T00:11:35;101337.47;;;7.78;100.00
32320;BME280;19080;51.750;5.888;2023-02-22T00:14:04;101353.88;;;7.94;100.00
32320;BME280;19080;51.750;5.888;2023-02-22T00:16:30;101333.88;;;7.76;100.00
32320;BME280;19080;51.750;5.888;2023-02-22T00:18:57;101344.56;;;7.79;100.00
32320;BME280;19080;51.750;5.888;2023-02-22T00:21:24;101289.50;;;7.41;100.00
32320;BME280;19080;51.750;5.888;2023-02-22T00:23:50;101307.41;;;7.49;100.00
32320;BME280;19080;51.750;5.888;2023-02-22T00:26:20;101332.63;;;7.65;100.00
32320;BME280;19080;51.750;5.888;2023-02-22T00:28:53;101323.69;;;7.62;100.00
32320;BME280;19080;51.750;5.888;2023-02-22T00:31:20;101313.06;;;7.60;100.00
32320;BME280;19080;51.750;5.888;2023-02-22T00:33:48;101349.00;;;7.80;100.00
32320;BME280;19080;51.750;5.888;2023-02-22T00:36:16;101351.75;;;7.83;100.00
32320;BME280;19080;51.750;5.888;2023-02-22T00:38:42;101333.69;;;7.70;100.00
32320;BME280;19080;51.750;5.888;2023-02-22T00:41:10;101316.88;;;7.68;100.00
32320;BME280;19080;51.750;5.888;2023-02-22T00:43:37;101314.81;;;7.60;100.00
32320;BME280;19080;51.750;5.888;2023-02-22T00:46:03;101252.72;;;7.22;100.00
32320;BME280;19080;51.750;5.888;2023-02-22T00:48:30;101260.03;;;7.29;100.00
32320;BME280;19080;51.750;5.888;2023-02-22T00:50:57;101351.66;;;7.80;100.00
32320;BME280;19080;51.750;5.888;2023-02-22T00:53:25;101256.44;;;7.27;100.00
32320;BME280;19080;51.750;5.888;2023-02-22T00:55:52;101321.22;;;7.66;100.00
32320;BME280;19080;51.750;5.888;2023-02-22T00:58:20;101253.06;;;7.31;100.00
32320;BME280;19080;51.750;5.888;2023-02-22T01:00:48;101316.88;;;7.68;100.00
32320;BME280;19080;51.750;5.888;2023-02-22T01:03:17;101313.22;;;7.65;100.00
32320;BME280;19080;51.750;5.888;2023-02-22T01:05:45;101298.97;;;7.60;100.00
32320;BME280;19080;51.750;5.888;2023-02-22T01:08:14;101332.19;;;7.78;100.00
32320;BME280;19080;51.750;5.888;2023-02-22T01:10:42;101315.94;;;7.66;100.00
32320;BME280;19080;51.750;5.888;2023-02-22T01:13:10;101319.72;;;7.74;100.00
32320;BME280;19080;51.750;5.888;2023-02-22T01:15:41;101311.50;;;7.65;100.00
32320;BME280;19080;51.750;5.888;2023-02-22T01:18:08;101241.50;;;7.27;100.00
32320;BME280;19080;51.750;5.888;2023-02-22T01:20:35;101228.91;;;7.20;100.00
32320;BME280;19080;51.750;5.888;2023-02-22T01:23:03;101323.22;;;7.73;100.00
32320;BME280;19080;51.750;5.888;2023-02-22T01:25:33;101301.56;;;7.58;100.00
32320;BME280;19080;51.750;5.888;2023-02-22T01:28:02;101222.63;;;7.16;100.00
32320;BME280;19080;51.750;5.888;2023-02-22T01:30:31;101282.91;;;7.54;100.00
32320;BME280;19080;51.750;5.888;2023-02-22T01:33:03;101300.81;;;7.62;100.00
32320;BME280;19080;51.750;5.888;2023-02-22T01:35:34;101233.31;;;7.19;100.00
32320;BME280;19080;51.750;5.888;2023-02-22T01:38:00;101184.19;;;6.99;100.00
32320;BME280;19080;51.750;5.888;2023-02-22T01:40:32;101272.91;;;7.45;100.00
32320;BME280;19080;51.750;5.888;2023-02-22T01:43:28;101297.16;;;7.59;100.00
32320;BME280;19080;51.750;5.888;2023-02-22T01:46:02;101306.84;;;7.58;100.00
32320;BME280;19080;51.750;5.888;2023-02-22T01:48:38;101257.44;;;7.30;100.00
32320;BME280;19080;51.750;5.888;2023-02-22T01:51:18;101242.59;;;7.34;100.00
32320;BME280;19080;51.750;5.888;2023-02-22T01:53:58;101288.50;;;7.63;100.00
32320;BME280;19080;51.750;5.888;2023-02-22T01:56:28;101267.75;;;7.48;100.00
32320;BME280;19080;51.750;5.888;2023-02-22T01:58:58;101283.69;;;7.51;100.00
32320;BME280;19080;51.750;5.888;2023-02-22T02:01:27;101206.47;;;7.07;100.00
32320;BME280;19080;51.750;5.888;2023-02-22T02:03:56;101207.31;;;7.06;100.00
32320;BME280;19080;51.750;5.888;2023-02-22T02:06:26;101253.16;;;7.34;100.00
32320;BME280;19080;51.750;5.888;2023-02-22T02:11:28;101239.53;;;7.22;100.00
32320;BME280;19080;51.750;5.888;2023-02-22T02:13:58;101278.19;;;7.45;100.00
32320;BME280;19080;51.750;5.888;2023-02-22T02:16:42;101263.88;;;7.38;100.00
32320;BME280;19080;51.750;5.888;2023-02-22T02:19:19;101251.94;;;7.24;100.00
32320;BME280;19080;51.750;5.888;2023-02-22T02:22:04;101271.66;;;7.34;100.00
32320;BME280;19080;51.750;5.888;2023-02-22T02:24:55;101267.69;;;7.21;100.00
32320;BME280;19080;51.750;5.888;2023-02-22T02:32:51;101265.56;;;7.11;100.00
32320;BME280;19080;51.750;5.888;2023-02-22T02:38:29;101238.66;;;6.72;100.00
32320;BME280;19080;51.750;5.888;2023-02-22T02:41:06;101252.34;;;6.85;100.00
32320;BME280;19080;51.750;5.888;2023-02-22T02:46:34;101208.22;;;6.58;100.00
32320;BME280;19080;51.750;5.888;2023-02-22T02:49:07;101158.63;;;6.24;100.00
32320;BME280;19080;51.750;5.888;2023-02-22T02:51:40;101229.38;;;6.59;100.00
32320;BME280;19080;51.750;5.888;2023-02-22T02:54:08;101236.16;;;6.52;100.00
32320;BME280;19080;51.750;5.888;2023-02-22T02:56:36;101218.19;;;6.42;100.00
32320;BME280;19080;51.750;5.888;2023-02-22T02:59:23;101133.69;;;5.92;100.00
32320;BME280;19080;51.750;5.888;2023-02-22T03:10:19;101224.25;;;6.40;100.00
32320;BME280;19080;51.750;5.888;2023-02-22T03:12:54;101226.84;;;6.38;100.00
32320;BME280;19080;51.750;5.888;2023-02-22T03:18:28;101217.13;;;6.37;100.00
32320;BME280;19080;51.750;5.888;2023-02-22T03:26:28;101222.34;;;6.36;100.00
32320;BME280;19080;51.750;5.888;2023-02-22T03:28:58;101195.75;;;6.30;100.00
32320;BME280;19080;51.750;5.888;2023-02-22T03:31:34;101198.31;;;6.28;100.00
32320;BME280;19080;51.750;5.888;2023-02-22T03:34:10;101219.22;;;6.46;100.00
32320;BME280;19080;51.750;5.888;2023-02-22T03:36:47;101099.88;;;5.81;100.00
32320;BME280;19080;51.750;5.888;2023-02-22T03:39:17;101186.78;;;6.25;100.00
32320;BME280;19080;51.750;5.888;2023-02-22T03:41:48;101117.88;;;5.92;100.00
32320;BME280;19080;51.750;5.888;2023-02-22T03:44:24;101117.72;;;5.88;100.00
32320;BME280;19080;51.750;5.888;2023-02-22T03:46:54;101219.38;;;6.50;100.00
32320;BME280;19080;51.750;5.888;2023-02-22T03:49:48;101081.03;;;5.71;100.00
32320;BME280;19080;51.750;5.888;2023-02-22T03:52:18;101199.63;;;6.39;100.00
32320;BME280;19080;51.750;5.888;2023-02-22T03:54:45;101182.75;;;6.34;100.00
32320;BME280;19080;51.750;5.888;2023-02-22T03:57:21;101195.31;;;6.41;100.00
32320;BME280;19080;51.750;5.888;2023-02-22T04:00:04;101109.97;;;5.92;100.00
32320;BME280;19080;51.750;5.888;2023-02-22T04:02:39;101173.81;;;6.31;100.00
32320;BME280;19080;51.750;5.888;2023-02-22T04:05:09;101196.31;;;6.45;100.00
32320;BME280;19080;51.750;5.888;2023-02-22T04:07:36;101178.44;;;6.36;100.00
32320;BME280;19080;51.750;5.888;2023-02-22T04:10:03;101158.78;;;6.28;100.00
32320;BME280;19080;51.750;5.888;2023-02-22T04:12:30;101160.69;;;6.32;100.00
32320;BME280;19080;51.750;5.888;2023-02-22T04:15:02;101116.00;;;6.11;100.00
32320;BME280;19080;51.750;5.888;2023-02-22T04:17:29;101147.34;;;6.28;100.00
32320;BME280;19080;51.750;5.888;2023-02-22T04:19:57;101186.56;;;6.42;100.00
32320;BME280;19080;51.750;5.888;2023-02-22T04:22:26;101143.59;;;6.21;100.00
32320;BME280;19080;51.750;5.888;2023-02-22T04:24:53;101184.75;;;6.41;100.00
32320;BME280;19080;51.750;5.888;2023-02-22T04:27:20;101169.72;;;6.39;100.00
32320;BME280;19080;51.750;5.888;2023-02-22T04:29:47;101158.72;;;6.27;100.00
32320;BME280;19080;51.750;5.888;2023-02-22T04:32:14;101097.69;;;5.92;100.00
32320;BME280;19080;51.750;5.888;2023-02-22T04:34:41;101151.53;;;6.23;100.00
32320;BME280;19080;51.750;5.888;2023-02-22T04:37:08;101159.75;;;6.30;100.00
32320;BME280;19080;51.750;5.888;2023-02-22T04:39:35;101114.03;;;6.06;100.00
32320;BME280;19080;51.750;5.888;2023-02-22T04:42:02;101156.38;;;6.34;100.00
32320;BME280;19080;51.750;5.888;2023-02-22T04:44:31;101155.66;;;6.38;100.00
32320;BME280;19080;51.750;5.888;2023-02-22T04:46:59;101111.38;;;6.06;100.00
32320;BME280;19080;51.750;5.888;2023-02-22T04:49:26;101145.72;;;6.31;100.00
32320;BME280;19080;51.750;5.888;2023-02-22T04:51:55;101040.91;;;5.78;100.00
32320;BME280;19080;51.750;5.888;2023-02-22T04:54:31;101121.72;;;6.24;100.00
32320;BME280;19080;51.750;5.888;2023-02-22T04:56:57;101145.16;;;6.40;100.00
32320;BME280;19080;51.750;5.888;2023-02-22T04:59:25;101120.16;;;6.29;100.00
32320;BME280;19080;51.750;5.888;2023-02-22T05:01:55;101065.34;;;5.96;100.00
32320;BME280;19080;51.750;5.888;2023-02-22T05:04:22;101129.16;;;6.35;100.00
32320;BME280;19080;51.750;5.888;2023-02-22T05:06:49;101128.44;;;6.39;100.00
32320;BME280;19080;51.750;5.888;2023-02-22T05:09:15;101024.34;;;5.80;100.00
32320;BME280;19080;51.750;5.888;2023-02-22T05:11:42;101097.16;;;6.25;100.00
32320;BME280;19080;51.750;5.888;2023-02-22T05:14:08;101070.19;;;6.08;100.00
32320;BME280;19080;51.750;5.888;2023-02-22T05:16:35;101068.44;;;6.08;100.00
32320;BME280;19080;51.750;5.888;2023-02-22T05:19:02;101073.03;;;6.14;100.00
32320;BME280;19080;51.750;5.888;2023-02-22T05:21:29;101112.06;;;6.48;100.00
32320;BME280;19080;51.750;5.888;2023-02-22T05:23:55;101060.09;;;6.20;100.00
32320;BME280;19080;51.750;5.888;2023-02-22T05:26:22;101067.88;;;6.17;100.00
32320;BME280;19080;51.750;5.888;2023-02-22T05:28:49;100978.94;;;5.64;100.00
32320;BME280;19080;51.750;5.888;2023-02-22T05:31:16;101071.28;;;6.14;100.00
32320;BME280;19080;51.750;5.888;2023-02-22T05:33:43;101019.56;;;5.93;100.00
32320;BME280;19080;51.750;5.888;2023-02-22T05:36:10;101090.41;;;6.33;100.00
32320;BME280;19080;51.750;5.888;2023-02-22T05:38:36;101091.31;;;6.33;100.00
32320;BME280;19080;51.750;5.888;2023-02-22T05:41:10;101031.03;;;5.95;100.00
32320;BME280;19080;51.750;5.888;2023-02-22T05:43:38;101029.31;;;5.95;100.00
32320;BME280;19080;51.750;5.888;2023-02-22T05:46:05;101112.75;;;6.42;100.00
32320;BME280;19080;51.750;5.888;2023-02-22T05:48:32;101044.56;;;6.04;100.00
32320;BME280;19080;51.750;5.888;2023-02-22T05:50:59;101103.66;;;6.34;100.00
32320;BME280;19080;51.750;5.888;2023-02-22T05:53:26;101074.28;;;6.24;100.00
32320;BME280;19080;51.750;5.888;2023-02-22T05:55:53;101065.34;;;6.20;100.00
32320;BME280;19080;51.750;5.888;2023-02-22T05:58:20;101101.47;;;6.46;100.00
32320;BME280;19080;51.750;5.888;2023-02-22T06:00:47;101086.38;;;6.42;100.00
32320;BME280;19080;51.750;5.888;2023-02-22T06:03:13;101063.06;;;6.29;100.00
32320;BME280;19080;51.750;5.888;2023-02-22T06:05:41;101045.09;;;6.19;100.00
32320;BME280;19080;51.750;5.888;2023-02-22T06:08:08;101012.81;;;6.01;100.00
32320;BME280;19080;51.750;5.888;2023-02-22T06:10:35;101001.16;;;5.94;100.00
32320;BME280;19080;51.750;5.888;2023-02-22T06:13:03;101038.84;;;6.15;100.00
32320;BME280;19080;51.750;5.888;2023-02-22T06:15:31;101068.44;;;6.32;100.00
32320;BME280;19080;51.750;5.888;2023-02-22T06:17:58;101065.00;;;6.35;100.00
32320;BME280;19080;51.750;5.888;2023-02-22T06:20:27;101002.50;;;6.07;100.00
32320;BME280;19080;51.750;5.888;2023-02-22T06:22:55;101083.31;;;6.56;100.00
32320;BME280;19080;51.750;5.888;2023-02-22T06:25:25;101066.34;;;6.47;100.00
32320;BME280;19080;51.750;5.888;2023-02-22T06:27:52;101069.31;;;6.57;100.00
32320;BME280;19080;51.750;5.888;2023-02-22T06:30:21;100980.75;;;6.12;100.00
32320;BME280;19080;51.750;5.888;2023-02-22T06:32:48;101062.44;;;6.62;100.00
32320;BME280;19080;51.750;5.888;2023-02-22T06:35:15;100968.19;;;6.05;100.00
32320;BME280;19080;51.750;5.888;2023-02-22T06:37:42;101047.88;;;6.47;100.00
32320;BME280;19080;51.750;5.888;2023-02-22T06:40:09;100900.28;;;5.73;100.00
32320;BME280;19080;51.750;5.888;2023-02-22T06:42:37;101033.97;;;6.51;100.00
32320;BME280;19080;51.750;5.888;2023-02-22T06:45:04;101031.13;;;6.45;100.00
32320;BME280;19080;51.750;5.888;2023-02-22T06:47:30;101058.22;;;6.67;100.00
32320;BME280;19080;51.750;5.888;2023-02-22T06:49:58;101062.66;;;6.68;100.00
32320;BME280;19080;51.750;5.888;2023-02-22T06:52:29;100962.25;;;6.11;100.00
32320;BME280;19080;51.750;5.888;2023-02-22T06:54:55;101015.25;;;6.44;100.00
32320;BME280;19080;51.750;5.888;2023-02-22T06:57:22;100951.91;;;6.17;100.00
32320;BME280;19080;51.750;5.888;2023-02-22T06:59:49;101031.78;;;6.65;100.00
32320;BME280;19080;51.750;5.888;2023-02-22T07:02:15;100924.47;;;6.10;100.00
32320;BME280;19080;51.750;5.888;2023-02-22T07:04:43;101004.09;;;6.52;100.00
32320;BME280;19080;51.750;5.888;2023-02-22T07:07:10;100996.84;;;6.45;100.00
32320;BME280;19080;51.750;5.888;2023-02-22T07:09:37;101013.06;;;6.58;100.00
32320;BME280;19080;51.750;5.888;2023-02-22T07:12:03;100948.53;;;6.21;100.00
32320;BME280;19080;51.750;5.888;2023-02-22T07:14:30;101016.75;;;6.63;100.00
32320;BME280;19080;51.750;5.888;2023-02-22T07:16:57;101012.97;;;6.55;100.00
32320;BME280;19080;51.750;5.888;2023-02-22T07:19:23;101027.22;;;6.60;100.00
32320;BME280;19080;51.750;5.888;2023-02-22T07:21:50;101034.69;;;6.73;100.00
32320;BME280;19080;51.750;5.888;2023-02-22T07:24:20;101023.25;;;6.72;100.00
32320;BME280;19080;51.750;5.888;2023-02-22T07:26:47;101031.31;;;6.77;100.00
32320;BME280;19080;51.750;5.888;2023-02-22T07:29:13;101026.34;;;6.86;100.00
32320;BME280;19080;51.750;5.888;2023-02-22T07:31:40;101017.16;;;6.75;100.00
32320;BME280;19080;51.750;5.888;2023-02-22T07:34:06;101012.31;;;6.87;100.00
32320;BME280;19080;51.750;5.888;2023-02-22T07:36:33;101024.53;;;6.85;100.00
32320;BME280;19080;51.750;5.888;2023-02-22T07:39:00;101028.34;;;6.95;100.00
32320;BME280;19080;51.750;5.888;2023-02-22T07:41:26;101038.50;;;7.09;100.00
32320;BME280;19080;51.750;5.888;2023-02-22T07:43:53;100922.91;;;6.42;100.00
32320;BME280;19080;51.750;5.888;2023-02-22T07:46:19;101033.88;;;7.02;100.00
32320;BME280;19080;51.750;5.888;2023-02-22T07:48:46;101041.03;;;7.06;100.00
32320;BME280;19080;51.750;5.888;2023-02-22T07:51:15;100928.28;;;6.45;100.00
32320;BME280;19080;51.750;5.888;2023-02-22T07:53:45;100984.88;;;6.82;100.00
32320;BME280;19080;51.750;5.888;2023-02-22T07:56:12;101056.44;;;7.19;100.00
32320;BME280;19080;51.750;5.888;2023-02-22T07:58:38;101073.63;;;7.34;100.00
32320;BME280;19080;51.750;5.888;2023-02-22T08:01:05;101072.91;;;7.39;100.00
32320;BME280;19080;51.750;5.888;2023-02-22T08:03:33;101045.59;;;7.39;100.00
32320;BME280;19080;51.750;5.888;2023-02-22T08:06:04;101063.25;;;7.40;100.00
32320;BME280;19080;51.750;5.888;2023-02-22T08:08:31;101043.06;;;7.42;100.00
32320;BME280;19080;51.750;5.888;2023-02-22T08:10:57;101037.91;;;7.46;100.00
32320;BME280;19080;51.750;5.888;2023-02-22T08:13:24;100912.97;;;6.89;100.00
32320;BME280;19080;51.750;5.888;2023-02-22T08:15:52;101064.19;;;7.70;100.00
32320;BME280;19080;51.750;5.888;2023-02-22T08:18:20;100981.09;;;7.31;100.00
32320;BME280;19080;51.750;5.888;2023-02-22T08:20:48;100957.88;;;7.19;100.00
32320;BME280;19080;51.750;5.888;2023-02-22T08:23:16;101040.31;;;7.67;100.00
32320;BME280;19080;51.750;5.888;2023-02-22T08:25:43;101022.41;;;7.57;100.00
32320;BME280;19080;51.750;5.888;2023-02-22T08:28:12;101043.16;;;7.73;100.00
32320;BME280;19080;51.750;5.888;2023-02-22T08:30:41;101077.25;;;7.94;100.00
32320;BME280;19080;51.750;5.888;2023-02-22T08:33:12;101060.97;;;7.80;100.00
32320;BME280;19080;51.750;5.888;2023-02-22T08:35:41;101068.31;;;7.91;100.00
32320;BME280;19080;51.750;5.888;2023-02-22T08:38:15;101064.81;;;7.92;100.00
32320;BME280;19080;51.750;5.888;2023-02-22T08:40:42;101071.47;;;8.07;100.00
32320;BME280;19080;51.750;5.888;2023-02-22T08:43:09;101075.94;;;8.10;100.00
32320;BME280;19080;51.750;5.888;2023-02-22T08:45:36;101074.22;;;8.12;100.00
32320;BME280;19080;51.750;5.888;2023-02-22T08:48:02;100969.66;;;7.60;100.00
32320;BME280;19080;51.750;5.888;2023-02-22T08:50:31;100999.34;;;7.81;100.00
32320;BME280;19080;51.750;5.888;2023-02-22T08:53:03;100972.97;;;7.83;100.00
32320;BME280;19080;51.750;5.888;2023-02-22T08:55:32;101041.22;;;8.29;100.00
32320;BME280;19080;51.750;5.888;2023-02-22T08:58:00;101007.44;;;8.19;100.00
32320;BME280;19080;51.750;5.888;2023-02-22T09:00:32;100969.03;;;8.00;100.00
32320;BME280;19080;51.750;5.888;2023-02-22T09:03:00;101064.03;;;8.56;100.00
32320;BME280;19080;51.750;5.888;2023-02-22T09:05:27;101023.84;;;8.37;100.00
32320;BME280;19080;51.750;5.888;2023-02-22T09:07:56;101044.78;;;8.61;100.00
32320;BME280;19080;51.750;5.888;2023-02-22T09:10:26;101002.84;;;8.43;100.00
32320;BME280;19080;51.750;5.888;2023-02-22T09:12:53;101017.53;;;8.67;100.00
32320;BME280;19080;51.750;5.888;2023-02-22T09:15:24;100991.03;;;8.64;100.00
32320;BME280;19080;51.750;5.888;2023-02-22T09:17:51;101007.41;;;8.85;100.00
32320;BME280;19080;51.750;5.888;2023-02-22T09:20:20;101038.06;;;9.11;100.00
32320;BME280;19080;51.750;5.888;2023-02-22T09:22:48;100999.03;;;9.03;100.00
32320;BME280;19080;51.750;5.888;2023-02-22T09:25:16;101046.66;;;9.39;100.00
32320;BME280;19080;51.750;5.888;2023-02-22T09:27:46;101049.66;;;9.54;100.00
32320;BME280;19080;51.750;5.888;2023-02-22T09:32:45;101040.03;;;9.98;100.00
32320;BME280;19080;51.750;5.888;2023-02-22T09:35:12;101002.88;;;9.97;100.00
32320;BME280;19080;51.750;5.888;2023-02-22T09:37:38;101011.63;;;10.36;100.00
32320;BME280;19080;51.750;5.888;2023-02-22T09:40:05;101006.56;;;10.52;100.00
32320;BME280;19080;51.750;5.888;2023-02-22T09:42:48;101017.44;;;10.65;100.00
32320;BME280;19080;51.750;5.888;2023-02-22T09:45:23;100959.28;;;10.26;100.00
32320;BME280;19080;51.750;5.888;2023-02-22T09:47:56;101012.00;;;10.58;100.00
32320;BME280;19080;51.750;5.888;2023-02-22T09:50:42;100941.75;;;10.36;100.00
32320;BME280;19080;51.750;5.888;2023-02-22T09:55:50;101000.13;;;10.89;100.00
32320;BME280;19080;51.750;5.888;2023-02-22T09:58:21;100928.06;;;10.64;100.00
32320;BME280;19080;51.750;5.888;2023-02-22T10:00:55;100983.63;;;11.08;100.00
32320;BME280;19080;51.750;5.888;2023-02-22T10:06:21;101010.53;;;11.31;100.00
32320;BME280;19080;51.750;5.888;2023-02-22T10:08:51;100958.88;;;11.12;100.00
32320;BME280;19080;51.750;5.888;2023-02-22T10:11:43;100995.53;;;11.34;100.00
32320;BME280;19080;51.750;5.888;2023-02-22T10:20:19;101001.00;;;12.10;100.00
32320;BME280;19080;51.750;5.888;2023-02-22T10:25:27;100976.75;;;12.74;100.00
32320;BME280;19080;51.750;5.888;2023-02-22T10:28:17;100974.25;;;12.95;100.00
32320;BME280;19080;51.750;5.888;2023-02-22T10:30:59;100989.75;;;13.49;100.00
32320;BME280;19080;51.750;5.888;2023-02-22T10:34:01;100984.59;;;13.92;100.00
32320;BME280;19080;51.750;5.888;2023-02-22T10:36:28;100977.59;;;14.27;100.00
32320;BME280;19080;51.750;5.888;2023-02-22T10:39:01;100903.69;;;14.11;100.00
32320;BME280;19080;51.750;5.888;2023-02-22T10:41:41;100901.03;;;14.17;100.00
32320;BME280;19080;51.750;5.888;2023-02-22T10:44:10;100942.00;;;14.41;100.00
32320;BME280;19080;51.750;5.888;2023-02-22T10:46:38;100942.03;;;14.65;100.00
32320;BME280;19080;51.750;5.888;2023-02-22T10:49:06;100873.44;;;14.15;100.00
32320;BME280;19080;51.750;5.888;2023-02-22T10:51:33;100946.50;;;14.58;100.00
32320;BME280;19080;51.750;5.888;2023-02-22T10:54:25;100960.75;;;14.74;100.00
32320;BME280;19080;51.750;5.888;2023-02-22T10:56:54;100941.13;;;14.98;100.00
32320;BME280;19080;51.750;5.888;2023-02-22T10:59:33;100943.66;;;15.60;100.00
32320;BME280;19080;51.750;5.888;2023-02-22T11:02:06;100887.59;;;15.25;100.00
32320;BME280;19080;51.750;5.888;2023-02-22T11:04:46;100937.41;;;15.66;100.00
32320;BME280;19080;51.750;5.888;2023-02-22T11:09:51;100929.91;;;16.29;96.36
32320;BME280;19080;51.750;5.888;2023-02-22T11:12:31;100952.06;;;16.54;94.81
32320;BME280;19080;51.750;5.888;2023-02-22T11:15:31;100950.22;;;16.60;92.55
32320;BME280;19080;51.750;5.888;2023-02-22T11:17:57;100885.25;;;16.30;91.16
32320;BME280;19080;51.750;5.888;2023-02-22T11:20:33;100881.72;;;16.24;92.72
32320;BME280;19080;51.750;5.888;2023-02-22T11:23:04;100885.34;;;16.19;91.77
32320;BME280;19080;51.750;5.888;2023-02-22T11:25:35;100943.06;;;16.63;90.52
32320;BME280;19080;51.750;5.888;2023-02-22T11:30:34;100886.72;;;16.72;89.34
32320;BME280;19080;51.750;5.888;2023-02-22T11:33:17;100956.75;;;17.33;88.18
32320;BME280;19080;51.750;5.888;2023-02-22T11:35:56;100875.50;;;17.19;87.07
32320;BME280;19080;51.750;5.888;2023-02-22T11:38:29;100944.84;;;17.52;82.33
32320;BME280;19080;51.750;5.888;2023-02-22T11:43:46;100931.00;;;17.15;81.82
32320;BME280;19080;51.750;5.888;2023-02-22T11:51:29;100926.59;;;18.45;72.50
32320;BME280;19080;51.750;5.888;2023-02-22T11:56:52;100859.59;;;17.76;70.59
32320;BME280;19080;51.750;5.888;2023-02-22T12:01:52;100919.38;;;19.04;64.12
32320;BME280;19080;51.750;5.888;2023-02-22T12:10:04;100825.25;;;19.01;57.63
32320;BME280;19080;51.750;5.888;2023-02-22T12:12:54;100908.47;;;19.08;61.20
32320;BME280;19080;51.750;5.888;2023-02-22T12:18:03;100780.88;;;18.78;60.89
32320;BME280;19080;51.750;5.888;2023-02-22T12:20:54;100873.06;;;19.31;59.00
32320;BME280;19080;51.750;5.888;2023-02-22T12:23:39;100817.44;;;19.30;60.47
32320;BME280;19080;51.750;5.888;2023-02-22T12:26:14;100815.13;;;19.57;58.91
32320;BME280;19080;51.750;5.888;2023-02-22T12:28:44;100882.47;;;19.09;58.61
32320;BME280;19080;51.750;5.888;2023-02-22T12:31:22;100877.31;;;18.46;61.62
32320;BME280;19080;51.750;5.888;2023-02-22T12:33:57;100871.03;;;17.90;64.53
32320;BME280;19080;51.750;5.888;2023-02-22T12:36:34;100858.41;;;17.29;68.20
32320;BME280;19080;51.750;5.888;2023-02-22T12:39:09;100800.25;;;16.50;74.82
32320;BME280;19080;51.750;5.888;2023-02-22T12:41:45;100791.66;;;16.13;79.89
32320;BME280;19080;51.750;5.888;2023-02-22T12:44:17;100868.06;;;16.56;80.91
32320;BME280;19080;51.750;5.888;2023-02-22T12:46:50;100791.47;;;16.34;81.76
32320;BME280;19080;51.750;5.888;2023-02-22T12:49:46;100832.00;;;16.92;79.44
32320;BME280;19080;51.750;5.888;2023-02-22T12:52:39;100756.16;;;16.83;73.24
32320;BME280;19080;51.750;5.888;2023-02-22T12:55:19;100782.13;;;16.78;73.64
32320;BME280;19080;51.750;5.888;2023-02-22T12:57:54;100858.72;;;17.02;74.91
32320;BME280;19080;51.750;5.888;2023-02-22T13:00:32;100870.63;;;16.75;73.77
32320;BME280;19080;51.750;5.888;2023-02-22T13:06:02;100863.72;;;16.45;77.86
32320;BME280;19080;51.750;5.888;2023-02-22T13:08:47;100876.97;;;16.62;76.76
32320;BME280;19080;51.750;5.888;2023-02-22T13:11:27;100889.53;;;16.53;76.66
32320;BME280;19080;51.750;5.888;2023-02-22T13:17:25;100872.72;;;16.36;83.14
32320;BME280;19080;51.750;5.888;2023-02-22T13:20:05;100871.94;;;16.20;84.86
32320;BME280;19080;51.750;5.888;2023-02-22T13:25:15;100882.81;;;15.94;88.80
32320;BME280;19080;51.750;5.888;2023-02-22T13:30:39;100876.75;;;15.60;95.55
32320;BME280;19080;51.750;5.888;2023-02-22T13:33:14;100883.13;;;15.32;98.99
32320;BME280;19080;51.750;5.888;2023-02-22T13:35:49;100884.97;;;15.16;100.00
32320;BME280;19080;51.750;5.888;2023-02-22T13:38:46;100874.31;;;14.93;100.00
32320;BME280;19080;51.750;5.888;2023-02-22T13:49:20;100865.44;;;14.40;100.00
32320;BME280;19080;51.750;5.888;2023-02-22T13:51:56;100835.16;;;14.01;100.00
32320;BME280;19080;51.750;5.888;2023-02-22T13:54:45;100797.81;;;13.67;100.00
32320;BME280;19080;51.750;5.888;2023-02-22T14:11:05;100797.50;;;12.91;100.00
32320;BME280;19080;51.750;5.888;2023-02-22T14:16:24;100842.84;;;13.02;100.00
32320;BME280;19080;51.750;5.888;2023-02-22T14:21:33;100870.44;;;13.09;100.00
32320;BME280;19080;51.750;5.888;2023-02-22T14:24:11;100845.44;;;12.88;100.00
32320;BME280;19080;51.750;5.888;2023-02-22T14:26:40;100874.81;;;13.02;100.00
32320;BME280;19080;51.750;5.888;2023-02-22T14:29:18;100867.66;;;12.89;100.00
32320;BME280;19080;51.750;5.888;2023-02-22T14:34:16;100877.34;;;12.79;100.00
32320;BME280;19080;51.750;5.888;2023-02-22T14:37:06;100865.72;;;12.65;100.00
32320;BME280;19080;51.750;5.888;2023-02-22T14:39:47;100883.50;;;12.72;100.00
32320;BME280;19080;51.750;5.888;2023-02-22T14:50:07;100892.13;;;12.41;100.00
32320;BME280;19080;51.750;5.888;2023-02-22T14:52:39;100854.63;;;12.07;100.00
32320;BME280;19080;51.750;5.888;2023-02-22T14:55:19;100891.88;;;12.07;100.00
32320;BME280;19080;51.750;5.888;2023-02-22T14:58:08;100898.81;;;11.93;100.00
32320;BME280;19080;51.750;5.888;2023-02-22T15:00:44;100881.69;;;11.69;100.00
32320;BME280;19080;51.750;5.888;2023-02-22T15:03:23;100903.78;;;11.64;100.00
32320;BME280;19080;51.750;5.888;2023-02-22T15:05:50;100811.69;;;10.96;100.00
32320;BME280;19080;51.750;5.888;2023-02-22T15:08:17;100815.16;;;10.89;100.00
32320;BME280;19080;51.750;5.888;2023-02-22T15:10:53;100821.34;;;10.90;100.00
32320;BME280;19080;51.750;5.888;2023-02-22T15:13:25;100798.22;;;10.81;100.00